Time;durP1;ratioP1;P1;durP2;ratioP2;P2;SDS_P1;SDS_P2;PMS_P1;PMS_P2;Temp;Humidity;BMP_temperature;BMP_pressure;BME280_temperature;BME280_humidity;BME280_pressure;Samples;Min_cycle;Max_cycle;Signal;HPM_P1;HPM_P2
2023/01/17 00:01:04;;;;;;;12.27;1.48;;;;;;;20.91;63.58;96158.00;7313151;19;129371;-37
2023/01/17 00:03:29;;;;;;;16.45;1.80;;;;;;;20.86;63.29;96154.47;7310582;19;129901;-39
2023/01/17 00:11:22;;;;;;;22.30;2.50;;;;;;;20.84;63.78;96144.22;7313100;19;129351;-40
2023/01/17 00:13:48;;;;;;;13.38;1.52;;;;;;;20.86;63.27;96133.59;7313780;19;130181;-40
2023/01/17 00:16:14;;;;;;;16.75;1.95;;;;;;;20.85;63.56;96135.41;7311739;19;129539;-40
2023/01/17 00:26:01;;;;;;;26.30;2.60;;;;;;;20.84;63.51;96133.78;7312705;19;129143;-40
2023/01/17 01:35:56;;;;;;;17.15;2.15;;;;;;;20.89;63.88;96146.97;7310761;19;129078;-37
2023/01/17 01:38:25;;;;;;;11.15;1.55;;;;;;;20.89;63.07;96141.75;7311130;19;129771;-40
2023/01/17 01:40:53;;;;;;;31.92;2.95;;;;;;;20.89;63.77;96148.81;7307883;19;129457;-39
2023/01/17 01:43:37;;;;;;;7.68;1.35;;;;;;;20.89;63.17;96143.59;7307657;19;129466;-41
2023/01/17 01:46:03;;;;;;;17.30;1.95;;;;;;;20.87;63.16;96133.38;7310693;19;128919;-39
2023/01/17 01:48:38;;;;;;;18.00;2.08;;;;;;;20.89;63.52;96141.00;7310173;19;129668;-39
2023/01/17 01:51:08;;;;;;;20.23;2.20;;;;;;;20.87;64.13;96137.78;7310520;19;130831;-39
2023/01/17 01:53:37;;;;;;;11.13;1.40;;;;;;;20.89;63.60;96139.16;7315757;19;129663;-38
2023/01/17 01:56:07;;;;;;;26.85;2.58;;;;;;;20.91;63.90;96134.50;7316602;19;129255;-39
2023/01/17 01:58:35;;;;;;;13.05;1.70;;;;;;;20.90;63.21;96138.16;7316985;19;128918;-39
2023/01/17 02:01:01;;;;;;;27.35;2.85;;;;;;;20.94;63.47;96135.91;7315691;19;129185;-41
2023/01/17 02:03:31;;;;;;;16.38;1.80;;;;;;;20.80;63.53;96121.41;7314645;19;129890;-41
2023/01/17 02:06:02;;;;;;;20.90;2.35;;;;;;;20.88;63.63;96144.59;7316841;19;129048;-41
2023/01/17 02:08:28;;;;;;;21.15;2.28;;;;;;;20.88;63.75;96140.19;7317001;19;129019;-37
2023/01/17 02:10:55;;;;;;;13.05;1.70;;;;;;;20.91;63.38;96139.75;7316391;19;129354;-42
2023/01/17 02:13:20;;;;;;;17.48;2.00;;;;;;;20.93;62.83;96137.72;7314455;19;129370;-41
2023/01/17 02:16:00;;;;;;;28.35;3.10;;;;;;;20.92;63.96;96146.56;7315527;19;129259;-38
2023/01/17 02:18:47;;;;;;;17.95;2.17;;;;;;;20.93;63.85;96147.34;7316746;19;129602;-40
2023/01/17 02:21:23;;;;;;;22.58;2.55;;;;;;;20.90;64.02;96143.38;7315974;19;130251;-38
2023/01/17 02:23:55;;;;;;;16.95;2.08;;;;;;;20.81;63.15;96129.00;7316592;19;130355;-37
2023/01/17 02:26:29;;;;;;;24.48;2.35;;;;;;;20.91;63.48;96149.41;7317062;19;129342;-41
2023/01/17 02:29:20;;;;;;;6.50;0.95;;;;;;;20.89;64.10;96146.97;7316333;19;129248;-38
2023/01/17 02:31:50;;;;;;;14.32;1.60;;;;;;;20.89;63.81;96146.97;7315595;19;129339;-38
2023/01/17 02:34:31;;;;;;;12.77;1.58;;;;;;;20.91;62.89;96138.97;7315840;19;129500;-40
2023/01/17 02:37:03;;;;;;;15.02;1.75;;;;;;;20.94;63.92;96149.75;7312968;19;128973;-39
2023/01/17 02:39:35;;;;;;;22.48;2.28;;;;;;;20.90;63.36;96143.38;7315371;19;129413;-41
2023/01/17 02:42:07;;;;;;;26.88;2.80;;;;;;;20.88;63.95;96144.59;7314711;19;130083;-39
2023/01/17 02:44:40;;;;;;;14.05;1.52;;;;;;;20.84;63.51;96127.78;7316456;19;129739;-42
2023/01/17 02:47:34;;;;;;;18.77;2.33;;;;;;;20.88;64.29;96150.63;7315258;19;129661;-40
2023/01/17 02:50:09;;;;;;;15.27;1.80;;;;;;;20.85;63.77;96153.69;7313978;19;128980;-38
2023/01/17 02:52:41;;;;;;;11.15;1.38;;;;;;;20.84;63.30;96162.50;7314842;19;129484;-39
2023/01/17 02:55:12;;;;;;;14.25;2.13;;;;;;;20.89;63.88;96167.09;7315484;19;129209;-41
2023/01/17 02:58:19;;;;;;;25.17;2.60;;;;;;;20.80;63.89;96145.69;7314698;19;129012;-36
2023/01/17 03:01:14;;;;;;;14.18;1.48;;;;;;;20.89;63.93;96169.72;7312233;19;129174;-40
2023/01/17 03:03:54;;;;;;;17.52;2.20;;;;;;;20.86;64.04;96173.53;7309670;19;130131;-37
2023/01/17 03:06:28;;;;;;;14.02;1.70;;;;;;;20.85;63.77;96187.63;7312504;19;130542;-39
2023/01/17 03:08:54;;;;;;;19.98;2.38;;;;;;;20.72;63.11;96172.09;7315391;19;129412;-41
2023/01/17 03:11:19;;;;;;;15.73;1.95;;;;;;;20.83;63.22;96192.25;7315219;19;129077;-36
2023/01/17 03:13:44;;;;;;;12.85;1.48;;;;;;;20.85;63.27;96187.63;7311517;19;129426;-37
2023/01/17 03:16:15;;;;;;;18.85;2.35;;;;;;;20.84;63.73;96196.44;7312736;19;129299;-40
2023/01/17 03:18:41;;;;;;;24.67;2.53;;;;;;;20.87;63.66;96195.22;7314882;19;128829;-41
2023/01/17 03:21:06;;;;;;;17.23;1.98;;;;;;;20.84;62.88;96196.44;7313207;19;129562;-41
2023/01/17 03:23:31;;;;;;;17.95;2.22;;;;;;;20.84;62.82;96199.06;7311099;19;129152;-40
2023/01/17 03:25:57;;;;;;;13.13;1.53;;;;;;;20.83;63.37;96210.53;7314668;19;129719;-38
2023/01/17 03:28:22;;;;;;;23.50;2.45;;;;;;;20.85;63.59;96208.50;7314062;19;129651;-40
2023/01/17 03:30:47;;;;;;;16.10;1.88;;;;;;;20.84;63.30;96217.34;7314920;19;129360;-39
2023/01/17 03:33:33;;;;;;;10.88;1.30;;;;;;;20.84;64.09;96216.56;7311380;19;130290;-38
2023/01/17 03:35:58;;;;;;;12.02;1.48;;;;;;;20.87;63.26;96214.31;7312923;19;129678;-41
2023/01/17 03:38:25;;;;;;;15.57;1.75;;;;;;;20.86;63.01;96210.09;7314485;19;128916;-40
2023/01/17 03:40:51;;;;;;;;;;;;;;;20.87;63.87;96221.34;7312824;19;129144;-40
2023/01/17 03:43:16;;;;;;;17.90;1.98;;;;;;;20.84;63.38;96224.38;7312081;19;130116;-40
2023/01/17 03:45:41;;;;;;;13.38;1.33;;;;;;;20.83;63.05;96235.81;7313371;19;129222;-36
2023/01/17 03:48:07;;;;;;;19.38;2.35;;;;;;;20.81;63.38;96220.38;7313706;19;129042;-42
2023/01/17 03:50:32;;;;;;;24.05;2.45;;;;;;;20.82;63.14;96223.81;7313642;19;129335;-39
2023/01/17 03:52:57;;;;;;;16.45;1.80;;;;;;;20.74;63.61;96230.13;7311937;19;128987;-38
2023/01/17 03:55:23;;;;;;;18.35;2.25;;;;;;;20.81;63.55;96236.03;7313685;19;129753;-40
2023/01/17 03:57:48;;;;;;;30.00;3.20;;;;;;;20.82;63.34;96234.25;7313315;19;128887;-38
2023/01/17 04:00:14;;;;;;;16.63;1.95;;;;;;;20.82;62.76;96244.69;7312464;19;128935;-36
2023/01/17 04:02:39;;;;;;;16.33;1.83;;;;;;;20.68;62.90;96228.34;7312003;19;128993;-39
2023/01/17 04:05:05;;;;;;;23.13;2.35;;;;;;;20.78;63.64;96236.47;7313004;19;129343;-40
2023/01/17 04:07:30;;;;;;;27.90;2.67;;;;;;;20.79;63.28;96245.94;7313551;19;129382;-41
2023/01/17 04:09:56;;;;;;;18.30;2.13;;;;;;;20.79;63.34;96245.13;7313983;19;128798;-39
2023/01/17 04:12:21;;;;;;;18.55;2.00;;;;;;;20.70;63.28;96241.97;7311344;19;129431;-41
2023/01/17 04:14:47;;;;;;;14.52;1.55;;;;;;;20.80;62.99;96254.53;7312149;19;131158;-35
2023/01/17 04:17:15;;;;;;;33.55;3.22;;;;;;;20.80;63.34;96257.16;7312424;19;129142;-37
2023/01/17 04:19:40;;;;;;;8.38;1.08;;;;;;;20.78;63.49;96257.38;7314102;19;129599;-39
2023/01/17 04:22:06;;;;;;;17.50;1.90;;;;;;;20.79;62.83;96256.38;7311994;19;130081;-40
2023/01/17 04:24:31;;;;;;;16.13;1.65;;;;;;;20.78;63.28;96267.81;7313148;19;129229;-41
2023/01/17 04:26:57;;;;;;;29.38;3.00;;;;;;;20.77;63.76;96263.63;7312763;19;129315;-35
2023/01/17 04:29:22;;;;;;;12.33;1.40;;;;;;;20.74;63.70;96264.06;7313016;19;128839;-39
2023/01/17 04:31:48;;;;;;;15.70;1.67;;;;;;;20.76;63.14;96272.44;7312932;19;129369;-40
2023/01/17 04:34:14;;;;;;;14.15;1.73;;;;;;;20.82;63.32;96287.25;7311555;19;129356;-38
2023/01/17 04:36:39;;;;;;;8.27;1.10;;;;;;;20.84;63.73;96290.44;7311964;19;129254;-36
2023/01/17 04:39:05;;;;;;;5.45;0.73;;;;;;;20.67;62.67;96289.41;7312330;19;128879;-42
2023/01/17 04:41:31;;;;;;;17.77;2.20;;;;;;;20.45;62.84;96296.00;7310356;19;129192;-40
2023/01/17 04:43:56;;;;;;;19.23;1.90;;;;;;;20.37;63.06;96304.88;7310980;19;129707;-37
2023/01/17 04:46:21;;;;;;;21.02;2.10;;;;;;;20.41;62.76;96324.31;7312767;19;129309;-38
2023/01/17 04:48:47;;;;;;;18.70;2.07;;;;;;;20.32;62.43;96290.88;7308567;19;129500;-39
2023/01/17 04:51:12;;;;;;;15.23;1.67;;;;;;;20.51;62.11;96321.25;7311594;19;129330;-39
2023/01/17 04:53:38;;;;;;;23.60;2.50;;;;;;;20.57;62.38;96317.78;7305064;19;129772;-34
2023/01/17 04:56:03;;;;;;;20.23;2.30;;;;;;;20.61;62.07;96316.34;7310057;19;130822;-39
2023/01/17 04:58:29;;;;;;;21.33;2.20;;;;;;;20.73;61.80;96323.28;7307920;19;129823;-38
2023/01/17 05:00:54;;;;;;;16.97;2.00;;;;;;;20.82;61.13;96331.66;7306881;19;131951;-37
2023/01/17 05:03:21;;;;;;;33.85;3.25;;;;;;;20.84;61.43;96329.59;7307137;19;129258;-40
2023/01/17 05:05:47;;;;;;;;;;;;;;;20.95;61.30;96326.31;7307654;19;129952;-39
2023/01/17 05:08:13;;;;;;;18.05;1.95;;;;;;;21.01;60.50;96335.09;7309113;19;129800;-37
2023/01/17 05:10:39;;;;;;;24.98;2.78;;;;;;;21.04;60.69;96343.31;7308986;19;130133;-38
2023/01/17 05:13:04;;;;;;;39.13;3.80;;;;;;;21.04;60.71;96321.66;7304832;19;129685;-36
2023/01/17 05:15:30;;;;;;;14.75;1.45;;;;;;;21.10;60.12;96331.22;7309401;19;129589;-39
2023/01/17 05:17:55;;;;;;;11.25;1.17;;;;;;;21.09;60.01;96346.09;7311615;19;129099;-39
2023/01/17 05:20:23;;;;;;;16.02;1.83;;;;;;;21.11;59.93;96351.91;7306417;19;129387;-40
2023/01/17 05:22:56;;;;;;;30.33;3.15;;;;;;;21.13;60.45;96347.25;7309067;19;129337;-40
2023/01/17 05:25:23;;;;;;;43.47;5.28;;;;;;;21.07;60.41;96344.72;7304137;19;131866;-38
2023/01/17 05:27:49;;;;;;;24.40;2.60;;;;;;;21.08;60.32;96349.72;7313585;19;129111;-41
2023/01/17 05:30:15;;;;;;;12.40;1.33;;;;;;;21.05;60.93;96360.59;7316819;19;129384;-39
2023/01/17 05:32:44;;;;;;;17.30;1.73;;;;;;;20.98;60.80;96344.19;7314841;19;129469;-40
2023/01/17 05:35:09;;;;;;;47.35;4.75;;;;;;;20.95;61.27;96351.63;7312438;19;130227;-35
2023/01/17 05:37:34;;;;;;;6.78;0.82;;;;;;;20.90;60.66;96354.88;7316893;19;128993;-39
2023/01/17 05:40:00;;;;;;;20.92;2.10;;;;;;;20.82;61.10;96365.59;7310842;19;132691;-38
2023/01/17 05:42:25;;;;;;;28.67;2.80;;;;;;;20.77;61.16;96367.22;7312445;19;129673;-40
2023/01/17 05:44:51;;;;;;;50.10;5.25;;;;;;;20.65;61.48;96348.84;7316201;19;129081;-38
2023/01/17 05:47:16;;;;;;;23.63;2.47;;;;;;;20.67;61.46;96370.31;7312769;19;131344;-38
2023/01/17 05:49:41;;;;;;;14.03;1.57;;;;;;;20.56;62.03;96355.34;7313361;19;130370;-40
2023/01/17 05:52:07;;;;;;;29.33;2.93;;;;;;;20.58;61.45;96374.19;7315161;19;130289;-40
2023/01/17 05:54:32;;;;;;;15.43;1.60;;;;;;;20.57;62.25;96368.19;7314973;19;130251;-40
2023/01/17 05:56:57;;;;;;;15.55;1.83;;;;;;;20.52;62.06;96375.03;7314863;19;128747;-38
2023/01/17 05:59:23;;;;;;;31.85;3.38;;;;;;;20.50;62.49;96382.25;7314050;19;129145;-38
2023/01/17 06:01:48;;;;;;;22.92;2.33;;;;;;;20.46;62.41;96391.53;7317563;19;130002;-40
2023/01/17 06:04:13;;;;;;;45.93;4.93;;;;;;;20.45;62.94;96379.47;7314890;19;129013;-38
2023/01/17 06:06:39;;;;;;;14.33;1.50;;;;;;;20.43;62.30;96394.53;7313037;19;130330;-35
2023/01/17 06:09:04;;;;;;;31.95;3.28;;;;;;;20.38;62.20;96394.38;7314506;19;130925;-41
2023/01/17 06:11:29;;;;;;;28.50;2.73;;;;;;;20.41;62.63;96399.19;7315749;19;129971;-37
2023/01/17 06:13:55;;;;;;;13.63;1.38;;;;;;;20.39;61.93;96391.59;7315562;19;129262;-35
2023/01/17 06:16:20;;;;;;;7.35;0.93;;;;;;;20.38;62.00;96394.38;7313447;19;128960;-39
2023/01/17 06:18:45;;;;;;;25.40;2.63;;;;;;;20.37;62.76;96393.59;7314311;19;130193;-39
2023/01/17 06:21:11;;;;;;;14.55;1.60;;;;;;;20.37;62.80;96403.22;7313687;19;129326;-39
2023/01/17 06:23:36;;;;;;;16.67;1.97;;;;;;;20.38;62.86;96396.97;7312295;19;129076;-40
2023/01/17 06:26:03;;;;;;;8.30;0.80;;;;;;;20.42;63.39;96400.78;7314909;19;129407;-38
2023/01/17 06:28:28;;;;;;;;;;;;;;;20.42;63.62;96408.63;7315153;19;129297;-40
2023/01/17 06:30:54;;;;;;;21.38;2.30;;;;;;;20.42;63.86;96408.63;7315113;19;130290;-38
2023/01/17 06:33:19;;;;;;;16.42;1.67;;;;;;;20.37;63.11;96398.00;7313199;19;129037;-38
2023/01/17 06:35:49;;;;;;;12.20;1.40;;;;;;;20.47;64.87;96414.00;7315338;19;129175;-39
2023/01/17 06:38:15;;;;;;;29.02;2.97;;;;;;;20.49;63.62;96404.94;7314067;19;130326;-37
2023/01/17 06:40:40;;;;;;;13.40;1.38;;;;;;;20.53;63.76;96413.16;7314477;19;129556;-37
2023/01/17 06:43:05;;;;;;;20.37;1.83;;;;;;;20.51;63.50;96404.75;7312985;19;129090;-38
2023/01/17 06:45:33;;;;;;;17.15;1.83;;;;;;;20.51;63.13;96420.41;7314709;19;128947;-39
2023/01/17 06:48:00;;;;;;;22.88;2.28;;;;;;;20.54;62.71;96423.38;7315335;19;130309;-40
2023/01/17 06:50:26;;;;;;;16.50;1.70;;;;;;;20.52;63.47;96424.63;7314985;19;129312;-41
2023/01/17 06:53:03;;;;;;;19.87;2.30;;;;;;;20.58;63.93;96427.19;7311747;19;130653;-38
2023/01/17 06:55:30;;;;;;;16.87;1.87;;;;;;;20.59;63.73;96443.66;7313744;19;129079;-39
2023/01/17 06:57:58;;;;;;;21.48;2.13;;;;;;;20.61;64.23;96446.84;7313417;19;129312;-39
2023/01/17 07:00:24;;;;;;;15.25;1.65;;;;;;;20.60;63.91;96442.63;7314069;19;129283;-41
2023/01/17 07:02:51;;;;;;;37.90;3.53;;;;;;;20.61;64.08;96446.84;7312978;19;129214;-38
2023/01/17 07:05:17;;;;;;;23.08;2.88;;;;;;;20.63;63.80;96456.06;7310268;19;129264;-41
2023/01/17 07:07:44;;;;;;;15.90;1.80;;;;;;;20.63;64.19;96460.47;7314845;19;129162;-40
2023/01/17 07:10:10;;;;;;;;;;;;;;;20.69;64.23;96454.44;7313997;19;129514;-39
2023/01/17 07:12:35;;;;;;;17.35;1.70;;;;;;;20.69;63.71;96455.22;7314538;19;128986;-40
2023/01/17 07:15:01;;;;;;;23.13;2.25;;;;;;;20.68;63.69;96465.88;7314813;19;128909;-39
2023/01/17 07:17:26;;;;;;;18.02;1.70;;;;;;;20.70;63.44;96471.69;7314750;19;129997;-39
2023/01/17 07:19:51;;;;;;;29.70;3.15;;;;;;;20.72;64.24;96467.84;7314110;19;130305;-36
2023/01/17 07:22:17;;;;;;;18.40;1.85;;;;;;;20.74;63.15;96467.66;7314395;19;129485;-38
2023/01/17 07:24:42;;;;;;;16.10;1.65;;;;;;;20.77;63.41;96476.88;7314691;19;129625;-41
2023/01/17 07:27:07;;;;;;;34.20;3.05;;;;;;;20.80;63.80;96466.81;7314267;19;130612;-38
2023/01/17 07:29:33;;;;;;;8.27;0.95;;;;;;;20.83;63.93;96478.63;7314626;19;130153;-38
2023/01/17 07:31:58;;;;;;;28.17;3.13;;;;;;;20.68;63.94;96458.03;7312910;19;129467;-40
2023/01/17 07:34:23;;;;;;;18.63;2.00;;;;;;;20.80;63.34;96469.44;7313008;19;128921;-40
2023/01/17 07:36:49;;;;;;;33.40;3.10;;;;;;;20.75;63.39;96474.47;7313475;19;129363;-39
2023/01/17 07:39:15;;;;;;;4.00;0.60;;;;;;;20.64;63.17;96462.09;7314092;19;129768;-38
2023/01/17 07:41:41;;;;;;;13.87;1.33;;;;;;;20.57;63.83;96472.56;7311664;19;129765;-39
2023/01/17 07:44:09;;;;;;;13.00;1.35;;;;;;;20.50;62.49;96476.22;7312515;19;129565;-40
2023/01/17 07:46:34;;;;;;;24.77;2.50;;;;;;;20.41;63.11;96477.47;7312722;19;129650;-40
2023/01/17 07:48:59;;;;;;;19.80;2.30;;;;;;;20.35;62.85;96479.09;7310207;19;129162;-39
2023/01/17 07:51:25;;;;;;;13.75;1.42;;;;;;;20.31;63.56;96475.28;7312922;19;129084;-38
2023/01/17 07:53:50;;;;;;;28.93;2.70;;;;;;;20.31;63.23;96487.53;7312831;19;129490;-41
2023/01/17 07:56:15;;;;;;;19.70;1.87;;;;;;;20.30;63.31;96485.94;7312441;19;129517;-39
2023/01/17 07:58:41;;;;;;;14.07;1.63;;;;;;;20.27;62.95;96487.16;7313292;19;129606;-36
2023/01/17 08:01:10;;;;;;;2.23;0.50;;;;;;;20.26;62.90;96489.97;7310866;19;129386;-42
2023/01/17 08:03:38;;;;;;;19.30;2.05;;;;;;;20.28;63.44;96499.19;7309836;19;129266;-39
2023/01/17 08:06:22;;;;;;;13.27;1.42;;;;;;;20.27;63.16;96502.81;7311787;19;128778;-39
2023/01/17 08:08:47;;;;;;;20.35;2.05;;;;;;;20.27;62.86;96507.22;7312748;19;130463;-38
2023/01/17 08:11:13;;;;;;;8.88;0.98;;;;;;;20.27;63.30;96507.22;7312860;19;129010;-40
2023/01/17 08:13:39;;;;;;;13.40;1.25;;;;;;;20.27;62.65;96507.22;7310150;19;129407;-39
2023/01/17 08:16:05;;;;;;;28.88;2.95;;;;;;;20.25;63.09;96507.41;7311024;19;129731;-38
2023/01/17 08:18:30;;;;;;;11.87;1.57;;;;;;;20.24;63.08;96502.41;7312403;19;130125;-41
2023/01/17 08:20:56;;;;;;;25.52;2.65;;;;;;;20.26;63.28;96516.06;7311223;19;128703;-40
2023/01/17 08:23:21;;;;;;;12.70;1.33;;;;;;;20.25;63.51;96511.81;7308750;19;129162;-41
2023/01/17 08:25:47;;;;;;;27.15;2.67;;;;;;;20.25;63.23;96517.03;7311820;19;129961;-41
2023/01/17 08:28:12;;;;;;;17.05;1.67;;;;;;;20.25;63.24;96504.00;7311144;19;129491;-39
2023/01/17 08:30:38;;;;;;;15.32;1.67;;;;;;;20.29;63.30;96520.84;7312190;19;129328;-39
2023/01/17 08:33:04;;;;;;;14.50;1.52;;;;;;;20.27;62.79;96522.88;7310141;19;130271;-39
2023/01/17 08:35:29;;;;;;;19.83;2.03;;;;;;;20.28;63.20;96532.31;7310955;19;129689;-39
2023/01/17 08:37:56;;;;;;;5.43;0.73;;;;;;;20.29;63.25;96526.06;7311865;19;129357;-39
2023/01/17 08:40:22;;;;;;;11.88;1.52;;;;;;;20.26;63.21;96521.28;7310570;19;130103;-40
2023/01/17 08:42:55;;;;;;;14.63;1.40;;;;;;;20.30;63.08;96528.47;7310314;19;129461;-39
2023/01/17 08:45:20;;;;;;;39.78;4.43;;;;;;;20.26;63.08;96527.28;7311442;19;131492;-39
2023/01/17 08:47:46;;;;;;;15.80;1.42;;;;;;;20.20;63.32;96527.28;7311910;19;129579;-36
2023/01/17 08:50:11;;;;;;;14.48;1.50;;;;;;;20.30;63.01;96544.13;7312199;19;129969;-39
2023/01/17 08:52:36;;;;;;;17.30;1.63;;;;;;;20.32;62.77;96557.78;7309428;19;128959;-39
2023/01/17 08:55:04;;;;;;;19.73;2.03;;;;;;;20.29;63.24;96571.22;7312142;19;128993;-32
2023/01/17 08:57:30;;;;;;;13.73;1.38;;;;;;;20.31;63.00;96571.03;7311552;19;129596;-36
2023/01/17 08:59:55;;;;;;;16.98;1.88;;;;;;;20.30;62.87;96579.84;7311015;19;128778;-38
2023/01/17 09:02:22;;;;;;;21.65;2.08;;;;;;;20.29;63.09;96584.28;7317203;19;129420;-41
2023/01/17 09:04:48;;;;;;;19.67;2.00;;;;;;;20.27;62.85;96578.44;7317691;19;129339;-40
2023/01/17 09:07:16;;;;;;;15.53;1.77;;;;;;;20.26;63.43;96576.06;7318408;19;130564;-37
2023/01/17 09:09:41;;;;;;;2.22;0.30;;;;;;;20.27;62.72;96591.50;7317607;19;128667;-40
2023/01/17 09:12:07;;;;;;;13.98;1.50;;;;;;;20.20;62.77;96582.06;7317696;19;129230;-40
2023/01/17 09:14:33;;;;;;;26.42;2.60;;;;;;;20.25;62.91;96584.88;7317236;19;130080;-36
2023/01/17 09:16:59;;;;;;;15.95;1.55;;;;;;;20.27;63.05;96588.06;7318110;19;129522;-37
2023/01/17 09:19:24;;;;;;;13.55;1.45;;;;;;;20.28;63.15;96613.97;7317828;19;129136;-36
2023/01/17 09:21:49;;;;;;;14.02;1.30;;;;;;;20.28;63.00;96605.34;7315551;19;129415;-41
2023/01/17 09:24:15;;;;;;;23.20;2.22;;;;;;;20.27;63.75;96616.78;7317853;19;129617;-41
2023/01/17 09:26:40;;;;;;;21.63;2.30;;;;;;;20.27;63.14;96616.78;7315548;19;129310;-36
2023/01/17 09:29:06;;;;;;;15.93;1.85;;;;;;;20.26;63.70;96623.78;7316884;19;129486;-41
2023/01/17 09:31:31;;;;;;;18.58;1.70;;;;;;;20.28;63.20;96618.41;7317325;19;129011;-39
2023/01/17 09:33:57;;;;;;;21.15;2.10;;;;;;;20.28;63.29;96616.56;7317573;19;129000;-39
2023/01/17 09:36:27;;;;;;;2.92;0.40;;;;;;;20.29;62.93;96614.78;7317128;19;129294;-39
2023/01/17 09:38:57;;;;;;;13.95;1.40;;;;;;;20.29;63.29;96625.22;7317025;19;128796;-40
2023/01/17 09:41:28;;;;;;;22.40;2.08;;;;;;;20.31;63.74;96617.97;7316615;19;131108;-40
2023/01/17 09:44:03;;;;;;;25.02;2.35;;;;;;;20.32;63.70;96623.00;7316433;19;129491;-39
2023/01/17 09:46:32;;;;;;;17.08;1.77;;;;;;;20.33;63.86;96621.16;7317626;19;130496;-40
2023/01/17 09:49:07;;;;;;;13.30;1.38;;;;;;;20.33;64.24;96615.94;7318083;19;128936;-38
2023/01/17 09:51:33;;;;;;;15.13;1.48;;;;;;;20.31;63.74;96628.41;7316698;19;128935;-41
2023/01/17 09:54:01;;;;;;;22.07;2.40;;;;;;;20.30;63.33;96621.56;7316163;19;129604;-38
2023/01/17 09:56:43;;;;;;;20.80;2.08;;;;;;;20.30;64.18;96600.72;7316989;19;129717;-38
2023/01/17 09:59:23;;;;;;;21.10;2.13;;;;;;;20.30;63.98;96627.59;7316262;19;129317;-40
2023/01/17 10:02:16;;;;;;;20.85;1.90;;;;;;;20.30;65.01;96624.19;7315162;19;130702;-38
2023/01/17 10:05:15;;;;;;;24.80;2.60;;;;;;;20.32;65.41;96623.00;7317135;19;129396;-40
2023/01/17 10:07:47;;;;;;;23.20;2.00;;;;;;;20.29;63.77;96620.00;7315804;19;129324;-40
2023/01/17 10:10:46;;;;;;;17.80;1.83;;;;;;;20.32;64.59;96630.00;7317012;19;129178;-39
2023/01/17 10:13:35;;;;;;;31.52;3.25;;;;;;;20.33;63.42;96636.81;7312088;19;129578;-38
2023/01/17 10:16:23;;;;;;;21.58;2.22;;;;;;;20.22;64.46;96614.78;7316227;19;129615;-41
2023/01/17 10:19:17;;;;;;;10.90;1.10;;;;;;;20.35;64.87;96634.81;7315280;19;130713;-39
2023/01/17 10:22:01;;;;;;;21.05;1.92;;;;;;;20.34;64.51;96633.22;7315101;19;129637;-40
2023/01/17 10:24:48;;;;;;;19.75;1.85;;;;;;;20.36;64.53;96636.44;7315831;19;129115;-40
2023/01/17 10:27:29;;;;;;;26.15;2.45;;;;;;;20.40;65.11;96635.00;7315573;19;130298;-39
2023/01/17 10:29:54;;;;;;;12.23;1.30;;;;;;;20.45;64.04;96635.19;7315350;19;129241;-40
2023/01/17 10:32:24;;;;;;;17.63;1.70;;;;;;;20.41;64.63;96636.63;7316303;19;128880;-40
2023/01/17 10:34:51;;;;;;;13.10;1.63;;;;;;;20.41;63.46;96639.25;7315211;19;129041;-40
2023/01/17 10:37:23;;;;;;;;;;;;;;;20.48;65.64;96637.41;7316371;19;129813;-40
2023/01/17 10:39:50;;;;;;;21.85;2.22;;;;;;;20.44;64.12;96642.22;7314343;19;129399;-38
2023/01/17 10:42:24;;;;;;;18.75;1.80;;;;;;;20.41;65.08;96654.91;7313439;19;128953;-40
2023/01/17 10:45:01;;;;;;;15.25;1.77;;;;;;;20.41;64.84;96660.13;7316787;19;129273;-39
2023/01/17 10:47:31;;;;;;;14.02;1.48;;;;;;;20.43;64.32;96661.50;7315811;19;128993;-39
2023/01/17 10:49:58;;;;;;;2.95;0.43;;;;;;;20.37;63.20;96658.91;7314462;19;129937;-41
2023/01/17 10:52:55;;;;;;;26.88;2.75;;;;;;;20.38;64.89;96661.31;7314306;19;129394;-41
2023/01/17 10:55:45;;;;;;;25.77;2.97;;;;;;;20.35;64.85;96656.50;7314696;19;128947;-40
2023/01/17 10:58:12;;;;;;;17.90;1.80;;;;;;;20.35;64.58;96660.91;7315175;19;129382;-40
2023/01/17 11:00:42;;;;;;;25.42;2.58;;;;;;;20.32;63.41;96669.16;7314319;19;129866;-39
2023/01/17 11:03:09;;;;;;;17.27;1.58;;;;;;;20.24;63.91;96645.88;7314060;19;129535;-40
2023/01/17 11:05:35;;;;;;;14.10;1.48;;;;;;;20.34;63.38;96674.97;7314218;19;129742;-40
2023/01/17 11:08:01;;;;;;;32.83;2.90;;;;;;;20.36;63.75;96667.75;7314258;19;129472;-38
2023/01/17 11:10:47;;;;;;;32.65;2.97;;;;;;;20.32;64.44;96663.94;7314911;19;130523;-42
2023/01/17 11:13:31;;;;;;;20.50;2.20;;;;;;;20.33;64.72;96673.34;7311990;19;129168;-39
2023/01/17 11:16:05;;;;;;;20.67;2.03;;;;;;;20.30;63.89;96673.75;7314637;19;129659;-39
2023/01/17 11:18:33;;;;;;;14.93;1.45;;;;;;;20.31;64.09;96665.72;7315557;19;130634;-39
2023/01/17 11:21:13;;;;;;;13.18;1.33;;;;;;;20.35;65.46;96663.50;7314015;19;129771;-39
2023/01/17 11:23:44;;;;;;;15.05;1.67;;;;;;;20.37;65.58;96658.91;7310046;19;129287;-38
2023/01/17 11:26:19;;;;;;;13.70;1.40;;;;;;;20.35;64.27;96655.69;7312958;19;129490;-39
2023/01/17 11:28:45;;;;;;;17.15;1.73;;;;;;;20.35;64.76;96645.25;7313673;19;129481;-38
2023/01/17 11:31:15;;;;;;;22.98;2.50;;;;;;;20.33;64.98;96648.06;7313721;19;129351;-38
2023/01/17 11:33:52;;;;;;;10.77;1.08;;;;;;;20.37;64.65;96658.91;7312182;19;129503;-38
2023/01/17 11:36:20;;;;;;;;;;;;;;;20.34;64.67;96654.09;7313700;19;129185;-40
2023/01/17 11:39:20;;;;;;;13.60;1.35;;;;;;;20.23;64.86;96636.47;7313493;19;129322;-39
2023/01/17 11:41:46;;;;;;;17.05;1.58;;;;;;;20.37;63.71;96656.28;7312398;19;129368;-38
2023/01/17 11:44:25;;;;;;;13.73;1.37;;;;;;;20.35;64.84;96660.91;7313823;19;129356;-40
2023/01/17 11:47:13;;;;;;;20.48;1.95;;;;;;;20.36;65.29;96658.09;7313834;19;129494;-40
2023/01/17 11:49:48;;;;;;;17.67;1.73;;;;;;;20.34;64.43;96664.53;7312615;19;129363;-38
2023/01/17 11:52:36;;;;;;;21.58;2.03;;;;;;;20.34;64.62;96654.91;7312756;19;131736;-41
2023/01/17 11:55:01;;;;;;;;;;;;;;;20.36;65.32;96657.31;7313050;19;129066;-39
2023/01/17 11:57:29;;;;;;;12.43;1.30;;;;;;;20.34;63.99;96651.50;7313615;19;128861;-40
2023/01/17 12:00:37;;;;;;;15.05;1.50;;;;;;;20.34;65.01;96654.09;7312994;19;129311;-40
2023/01/17 12:03:14;;;;;;;15.68;1.58;;;;;;;20.32;64.36;96650.88;7310962;19;129875;-37
2023/01/17 12:06:16;;;;;;;5.47;0.75;;;;;;;20.35;65.33;96655.69;7313043;19;128924;-40
2023/01/17 12:08:51;;;;;;;19.88;1.88;;;;;;;20.33;63.23;96657.69;7313340;19;128938;-40
2023/01/17 12:11:25;;;;;;;3.75;0.50;;;;;;;20.35;65.72;96656.50;7313335;19;129661;-40
2023/01/17 12:14:21;;;;;;;23.45;2.22;;;;;;;20.37;65.14;96658.91;7312900;19;129608;-39
2023/01/17 12:16:52;;;;;;;16.13;1.48;;;;;;;20.33;64.33;96663.72;7312138;19;129073;-38
2023/01/17 12:19:32;;;;;;;12.57;1.25;;;;;;;20.19;64.33;96648.28;7313351;19;129845;-38
2023/01/17 12:22:16;;;;;;;18.02;2.10;;;;;;;20.27;63.67;96658.50;7309856;19;129545;-38
2023/01/17 12:25:18;;;;;;;13.52;1.42;;;;;;;20.25;64.76;96660.50;7312539;19;129799;-38
2023/01/17 12:28:17;;;;;;;16.23;1.63;;;;;;;20.22;64.71;96659.13;7313035;19;129013;-40
2023/01/17 12:30:45;;;;;;;13.88;1.42;;;;;;;20.23;63.46;96672.97;7313505;19;128989;-37
2023/01/17 12:33:18;;;;;;;15.88;1.50;;;;;;;20.19;64.57;96669.16;7309022;19;130699;-38
2023/01/17 12:36:06;;;;;;;18.27;1.77;;;;;;;20.18;63.70;96667.56;7310284;19;131001;-38
2023/01/17 12:38:35;;;;;;;19.30;1.98;;;;;;;20.16;63.63;96672.16;7312076;19;129339;-38
2023/01/17 12:41:16;;;;;;;20.50;1.95;;;;;;;20.13;63.93;96659.50;7311512;19;129708;-38
2023/01/17 12:43:43;;;;;;;16.45;1.70;;;;;;;20.15;63.37;96670.56;7309500;19;129733;-38
2023/01/17 12:46:27;;;;;;;16.33;1.55;;;;;;;20.15;63.56;96670.56;7311851;19;130020;-40
2023/01/17 12:49:03;;;;;;;23.52;2.22;;;;;;;20.08;64.52;96659.31;7311654;19;129402;-40
2023/01/17 12:51:34;;;;;;;11.32;1.20;;;;;;;20.10;63.41;96667.72;7311596;19;129586;-40
2023/01/17 12:54:14;;;;;;;29.95;3.20;;;;;;;20.12;64.38;96671.72;7309697;19;129060;-41